sensor_id;sensor_type;location;lat;lon;timestamp;P1;durP1;ratioP1;P2;durP2;ratioP2
4704;SDS011;2366;51.332;6.610;2023-08-08T00:00:04;2.07;;;1.87;;
4704;SDS011;2366;51.332;6.610;2023-08-08T00:02:30;2.92;;;2.20;;
4704;SDS011;2366;51.332;6.610;2023-08-08T00:04:55;2.57;;;2.17;;
4704;SDS011;2366;51.332;6.610;2023-08-08T00:07:21;3.03;;;1.87;;
4704;SDS011;2366;51.332;6.610;2023-08-08T00:09:46;4.03;;;1.80;;
4704;SDS011;2366;51.332;6.610;2023-08-08T00:12:12;1.83;;;1.70;;
4704;SDS011;2366;51.332;6.610;2023-08-08T00:14:37;1.90;;;1.63;;
4704;SDS011;2366;51.332;6.610;2023-08-08T00:17:03;3.70;;;2.47;;
4704;SDS011;2366;51.332;6.610;2023-08-08T00:19:28;2.03;;;1.93;;
4704;SDS011;2366;51.332;6.610;2023-08-08T00:21:54;4.53;;;2.37;;
4704;SDS011;2366;51.332;6.610;2023-08-08T00:24:19;6.23;;;2.00;;
4704;SDS011;2366;51.332;6.610;2023-08-08T00:26:44;2.03;;;1.83;;
4704;SDS011;2366;51.332;6.610;2023-08-08T00:29:10;4.67;;;2.30;;
4704;SDS011;2366;51.332;6.610;2023-08-08T00:31:35;2.50;;;2.00;;
4704;SDS011;2366;51.332;6.610;2023-08-08T00:34:00;3.50;;;2.17;;
4704;SDS011;2366;51.332;6.610;2023-08-08T00:36:26;2.37;;;2.27;;
4704;SDS011;2366;51.332;6.610;2023-08-08T00:38:51;3.27;;;2.07;;
4704;SDS011;2366;51.332;6.610;2023-08-08T00:41:17;3.77;;;2.33;;
4704;SDS011;2366;51.332;6.610;2023-08-08T00:43:42;4.43;;;2.70;;
4704;SDS011;2366;51.332;6.610;2023-08-08T00:46:08;2.55;;;2.35;;
4704;SDS011;2366;51.332;6.610;2023-08-08T00:48:34;6.63;;;1.70;;
4704;SDS011;2366;51.332;6.610;2023-08-08T00:50:59;3.20;;;2.77;;
4704;SDS011;2366;51.332;6.610;2023-08-08T00:53:25;4.20;;;2.70;;
4704;SDS011;2366;51.332;6.610;2023-08-08T00:55:53;4.00;;;2.17;;
4704;SDS011;2366;51.332;6.610;2023-08-08T00:58:19;6.15;;;2.45;;
4704;SDS011;2366;51.332;6.610;2023-08-08T01:00:45;3.03;;;2.67;;
4704;SDS011;2366;51.332;6.610;2023-08-08T01:03:10;3.30;;;3.00;;
4704;SDS011;2366;51.332;6.610;2023-08-08T01:05:38;4.00;;;2.67;;
4704;SDS011;2366;51.332;6.610;2023-08-08T01:08:11;4.28;;;2.95;;
4704;SDS011;2366;51.332;6.610;2023-08-08T01:10:41;3.00;;;2.75;;
4704;SDS011;2366;51.332;6.610;2023-08-08T01:13:16;6.15;;;3.00;;
4704;SDS011;2366;51.332;6.610;2023-08-08T01:15:46;6.57;;;3.22;;
4704;SDS011;2366;51.332;6.610;2023-08-08T01:18:14;4.70;;;2.40;;
4704;SDS011;2366;51.332;6.610;2023-08-08T01:20:41;5.07;;;2.95;;
4704;SDS011;2366;51.332;6.610;2023-08-08T01:23:19;7.35;;;2.88;;
4704;SDS011;2366;51.332;6.610;2023-08-08T01:26:04;3.92;;;3.28;;
4704;SDS011;2366;51.332;6.610;2023-08-08T01:28:30;3.00;;;2.70;;
4704;SDS011;2366;51.332;6.610;2023-08-08T01:30:56;5.57;;;2.90;;
4704;SDS011;2366;51.332;6.610;2023-08-08T01:33:21;3.70;;;2.47;;
4704;SDS011;2366;51.332;6.610;2023-08-08T01:35:48;4.23;;;3.53;;
4704;SDS011;2366;51.332;6.610;2023-08-08T01:40:58;2.50;;;2.30;;
4704;SDS011;2366;51.332;6.610;2023-08-08T01:43:24;6.20;;;3.03;;
4704;SDS011;2366;51.332;6.610;2023-08-08T01:45:51;3.50;;;2.60;;
4704;SDS011;2366;51.332;6.610;2023-08-08T01:48:17;4.50;;;2.50;;
4704;SDS011;2366;51.332;6.610;2023-08-08T01:50:42;2.67;;;2.47;;
4704;SDS011;2366;51.332;6.610;2023-08-08T01:53:08;4.10;;;2.67;;
4704;SDS011;2366;51.332;6.610;2023-08-08T01:55:33;2.40;;;2.20;;
4704;SDS011;2366;51.332;6.610;2023-08-08T01:57:59;3.50;;;2.40;;
4704;SDS011;2366;51.332;6.610;2023-08-08T02:00:24;2.40;;;2.10;;
4704;SDS011;2366;51.332;6.610;2023-08-08T02:02:50;2.33;;;2.13;;
4704;SDS011;2366;51.332;6.610;2023-08-08T02:05:15;3.47;;;2.40;;
4704;SDS011;2366;51.332;6.610;2023-08-08T02:07:41;4.57;;;3.10;;
4704;SDS011;2366;51.332;6.610;2023-08-08T02:10:06;3.00;;;2.80;;
4704;SDS011;2366;51.332;6.610;2023-08-08T02:12:32;3.53;;;2.63;;
4704;SDS011;2366;51.332;6.610;2023-08-08T02:14:58;3.97;;;2.93;;
4704;SDS011;2366;51.332;6.610;2023-08-08T02:17:24;5.27;;;2.60;;
4704;SDS011;2366;51.332;6.610;2023-08-08T02:19:50;5.60;;;2.63;;
4704;SDS011;2366;51.332;6.610;2023-08-08T02:22:16;6.30;;;2.93;;
4704;SDS011;2366;51.332;6.610;2023-08-08T02:24:42;3.53;;;2.80;;
4704;SDS011;2366;51.332;6.610;2023-08-08T02:27:07;6.77;;;2.47;;
4704;SDS011;2366;51.332;6.610;2023-08-08T02:29:33;8.23;;;2.50;;
4704;SDS011;2366;51.332;6.610;2023-08-08T02:31:58;5.57;;;3.10;;
4704;SDS011;2366;51.332;6.610;2023-08-08T02:34:23;3.00;;;2.80;;
4704;SDS011;2366;51.332;6.610;2023-08-08T02:36:49;3.60;;;2.10;;
4704;SDS011;2366;51.332;6.610;2023-08-08T02:39:14;6.00;;;2.90;;
4704;SDS011;2366;51.332;6.610;2023-08-08T02:41:40;4.60;;;1.97;;
4704;SDS011;2366;51.332;6.610;2023-08-08T02:44:06;5.37;;;3.10;;
4704;SDS011;2366;51.332;6.610;2023-08-08T02:46:31;3.03;;;2.72;;
4704;SDS011;2366;51.332;6.610;2023-08-08T02:48:56;8.33;;;3.00;;
4704;SDS011;2366;51.332;6.610;2023-08-08T02:51:22;4.50;;;2.70;;
4704;SDS011;2366;51.332;6.610;2023-08-08T02:53:47;4.57;;;2.70;;
4704;SDS011;2366;51.332;6.610;2023-08-08T02:56:13;3.97;;;2.50;;
4704;SDS011;2366;51.332;6.610;2023-08-08T02:58:38;7.77;;;2.67;;
4704;SDS011;2366;51.332;6.610;2023-08-08T03:01:03;4.10;;;2.73;;
4704;SDS011;2366;51.332;6.610;2023-08-08T03:03:29;3.40;;;1.97;;
4704;SDS011;2366;51.332;6.610;2023-08-08T03:05:54;4.20;;;3.30;;
4704;SDS011;2366;51.332;6.610;2023-08-08T03:08:20;4.33;;;2.43;;
4704;SDS011;2366;51.332;6.610;2023-08-08T03:10:45;3.20;;;2.13;;
4704;SDS011;2366;51.332;6.610;2023-08-08T03:13:11;2.50;;;1.77;;
4704;SDS011;2366;51.332;6.610;2023-08-08T03:15:36;8.80;;;3.40;;
4704;SDS011;2366;51.332;6.610;2023-08-08T03:18:02;4.90;;;2.20;;
4704;SDS011;2366;51.332;6.610;2023-08-08T03:20:28;3.92;;;2.25;;
4704;SDS011;2366;51.332;6.610;2023-08-08T03:22:53;4.23;;;2.20;;
4704;SDS011;2366;51.332;6.610;2023-08-08T03:25:19;7.33;;;2.80;;
4704;SDS011;2366;51.332;6.610;2023-08-08T03:27:44;3.30;;;2.33;;
4704;SDS011;2366;51.332;6.610;2023-08-08T03:30:10;4.83;;;2.70;;
4704;SDS011;2366;51.332;6.610;2023-08-08T03:32:35;2.50;;;2.20;;
4704;SDS011;2366;51.332;6.610;2023-08-08T03:35:01;5.07;;;2.00;;
4704;SDS011;2366;51.332;6.610;2023-08-08T03:37:26;5.10;;;2.33;;
4704;SDS011;2366;51.332;6.610;2023-08-08T03:39:52;3.63;;;2.10;;
4704;SDS011;2366;51.332;6.610;2023-08-08T03:42:17;5.97;;;2.50;;
4704;SDS011;2366;51.332;6.610;2023-08-08T03:44:55;6.57;;;1.80;;
4704;SDS011;2366;51.332;6.610;2023-08-08T03:47:20;3.87;;;2.20;;
4704;SDS011;2366;51.332;6.610;2023-08-08T03:49:47;4.80;;;2.60;;
4704;SDS011;2366;51.332;6.610;2023-08-08T03:52:12;2.73;;;2.00;;
4704;SDS011;2366;51.332;6.610;2023-08-08T03:54:38;2.67;;;2.47;;
4704;SDS011;2366;51.332;6.610;2023-08-08T03:57:03;17.40;;;3.27;;
4704;SDS011;2366;51.332;6.610;2023-08-08T03:59:28;8.23;;;2.27;;
4704;SDS011;2366;51.332;6.610;2023-08-08T04:01:54;4.40;;;2.73;;
4704;SDS011;2366;51.332;6.610;2023-08-08T04:04:19;5.23;;;2.33;;
4704;SDS011;2366;51.332;6.610;2023-08-08T04:06:44;7.30;;;2.87;;
4704;SDS011;2366;51.332;6.610;2023-08-08T04:09:10;9.43;;;3.03;;
4704;SDS011;2366;51.332;6.610;2023-08-08T04:11:36;5.80;;;2.93;;
4704;SDS011;2366;51.332;6.610;2023-08-08T04:14:02;4.00;;;2.70;;
4704;SDS011;2366;51.332;6.610;2023-08-08T04:16:27;8.73;;;3.23;;
4704;SDS011;2366;51.332;6.610;2023-08-08T04:18:53;4.10;;;3.10;;
4704;SDS011;2366;51.332;6.610;2023-08-08T04:21:18;6.13;;;2.80;;
4704;SDS011;2366;51.332;6.610;2023-08-08T04:23:44;5.70;;;3.40;;
4704;SDS011;2366;51.332;6.610;2023-08-08T04:26:09;4.30;;;3.10;;
4704;SDS011;2366;51.332;6.610;2023-08-08T04:28:34;7.03;;;3.90;;
4704;SDS011;2366;51.332;6.610;2023-08-08T04:31:00;8.00;;;2.77;;
4704;SDS011;2366;51.332;6.610;2023-08-08T04:33:25;6.03;;;2.97;;
4704;SDS011;2366;51.332;6.610;2023-08-08T04:35:50;14.73;;;3.73;;
4704;SDS011;2366;51.332;6.610;2023-08-08T04:38:16;7.03;;;3.50;;
4704;SDS011;2366;51.332;6.610;2023-08-08T04:40:41;4.60;;;3.87;;
4704;SDS011;2366;51.332;6.610;2023-08-08T04:43:06;10.10;;;3.30;;
4704;SDS011;2366;51.332;6.610;2023-08-08T04:45:32;9.43;;;3.50;;
4704;SDS011;2366;51.332;6.610;2023-08-08T04:47:58;7.45;;;3.85;;
4704;SDS011;2366;51.332;6.610;2023-08-08T04:50:24;16.83;;;4.70;;
4704;SDS011;2366;51.332;6.610;2023-08-08T04:52:49;8.07;;;3.67;;
4704;SDS011;2366;51.332;6.610;2023-08-08T04:55:14;7.17;;;4.87;;
4704;SDS011;2366;51.332;6.610;2023-08-08T04:57:40;6.67;;;4.57;;
4704;SDS011;2366;51.332;6.610;2023-08-08T05:00:05;6.20;;;3.07;;
4704;SDS011;2366;51.332;6.610;2023-08-08T05:02:33;15.20;;;3.85;;
4704;SDS011;2366;51.332;6.610;2023-08-08T05:04:59;9.93;;;4.03;;
4704;SDS011;2366;51.332;6.610;2023-08-08T05:07:25;12.27;;;4.50;;
4704;SDS011;2366;51.332;6.610;2023-08-08T05:09:51;6.67;;;3.77;;
4704;SDS011;2366;51.332;6.610;2023-08-08T05:12:17;12.50;;;4.10;;
4704;SDS011;2366;51.332;6.610;2023-08-08T05:14:42;10.63;;;4.03;;
4704;SDS011;2366;51.332;6.610;2023-08-08T05:17:07;4.63;;;4.17;;
4704;SDS011;2366;51.332;6.610;2023-08-08T05:19:33;13.93;;;3.90;;
4704;SDS011;2366;51.332;6.610;2023-08-08T05:21:58;6.70;;;4.87;;
4704;SDS011;2366;51.332;6.610;2023-08-08T05:24:24;6.30;;;3.63;;
4704;SDS011;2366;51.332;6.610;2023-08-08T05:26:50;15.13;;;4.00;;
4704;SDS011;2366;51.332;6.610;2023-08-08T05:29:15;9.43;;;5.07;;
4704;SDS011;2366;51.332;6.610;2023-08-08T05:31:40;6.00;;;4.03;;
4704;SDS011;2366;51.332;6.610;2023-08-08T05:34:06;8.87;;;4.37;;
4704;SDS011;2366;51.332;6.610;2023-08-08T05:36:31;7.37;;;3.80;;
4704;SDS011;2366;51.332;6.610;2023-08-08T05:38:56;7.43;;;5.47;;
4704;SDS011;2366;51.332;6.610;2023-08-08T05:41:22;6.97;;;4.00;;
4704;SDS011;2366;51.332;6.610;2023-08-08T05:43:47;15.30;;;5.13;;
4704;SDS011;2366;51.332;6.610;2023-08-08T05:46:12;11.73;;;4.87;;
4704;SDS011;2366;51.332;6.610;2023-08-08T05:48:38;12.73;;;5.07;;
4704;SDS011;2366;51.332;6.610;2023-08-08T05:51:03;9.93;;;5.07;;
4704;SDS011;2366;51.332;6.610;2023-08-08T05:53:30;18.15;;;4.60;;
4704;SDS011;2366;51.332;6.610;2023-08-08T05:55:56;7.85;;;5.47;;
4704;SDS011;2366;51.332;6.610;2023-08-08T05:58:22;24.40;;;5.80;;
4704;SDS011;2366;51.332;6.610;2023-08-08T06:00:47;10.23;;;5.63;;
4704;SDS011;2366;51.332;6.610;2023-08-08T06:03:13;12.03;;;5.83;;
4704;SDS011;2366;51.332;6.610;2023-08-08T06:05:38;9.13;;;5.70;;
4704;SDS011;2366;51.332;6.610;2023-08-08T06:08:03;20.57;;;6.90;;
4704;SDS011;2366;51.332;6.610;2023-08-08T06:10:31;13.77;;;5.07;;
4704;SDS011;2366;51.332;6.610;2023-08-08T06:12:57;9.40;;;4.90;;
4704;SDS011;2366;51.332;6.610;2023-08-08T06:15:22;22.23;;;5.80;;
4704;SDS011;2366;51.332;6.610;2023-08-08T06:17:48;9.83;;;6.63;;
4704;SDS011;2366;51.332;6.610;2023-08-08T06:20:13;7.87;;;5.13;;
4704;SDS011;2366;51.332;6.610;2023-08-08T06:22:39;9.17;;;5.13;;
4704;SDS011;2366;51.332;6.610;2023-08-08T06:25:05;8.63;;;4.25;;
4704;SDS011;2366;51.332;6.610;2023-08-08T06:27:31;14.93;;;5.90;;
4704;SDS011;2366;51.332;6.610;2023-08-08T06:29:56;13.67;;;4.77;;
4704;SDS011;2366;51.332;6.610;2023-08-08T06:32:21;4.57;;;3.80;;
4704;SDS011;2366;51.332;6.610;2023-08-08T06:34:47;14.07;;;4.43;;
4704;SDS011;2366;51.332;6.610;2023-08-08T06:37:12;7.03;;;4.20;;
4704;SDS011;2366;51.332;6.610;2023-08-08T06:39:38;11.37;;;4.60;;
4704;SDS011;2366;51.332;6.610;2023-08-08T06:42:05;4.70;;;3.45;;
4704;SDS011;2366;51.332;6.610;2023-08-08T06:44:40;13.57;;;4.60;;
4704;SDS011;2366;51.332;6.610;2023-08-08T06:47:08;12.13;;;4.25;;
4704;SDS011;2366;51.332;6.610;2023-08-08T06:49:34;8.87;;;3.27;;
4704;SDS011;2366;51.332;6.610;2023-08-08T06:51:59;10.27;;;4.33;;
4704;SDS011;2366;51.332;6.610;2023-08-08T06:54:25;6.53;;;3.47;;
4704;SDS011;2366;51.332;6.610;2023-08-08T06:56:53;12.33;;;3.50;;
4704;SDS011;2366;51.332;6.610;2023-08-08T06:59:19;7.50;;;3.37;;
4704;SDS011;2366;51.332;6.610;2023-08-08T07:01:44;8.83;;;3.20;;
4704;SDS011;2366;51.332;6.610;2023-08-08T07:04:09;9.63;;;3.43;;
4704;SDS011;2366;51.332;6.610;2023-08-08T07:06:35;5.63;;;3.23;;
4704;SDS011;2366;51.332;6.610;2023-08-08T07:09:01;4.43;;;3.87;;
4704;SDS011;2366;51.332;6.610;2023-08-08T07:11:26;8.20;;;3.40;;
4704;SDS011;2366;51.332;6.610;2023-08-08T07:13:52;11.37;;;3.43;;
4704;SDS011;2366;51.332;6.610;2023-08-08T07:16:17;8.30;;;2.93;;
4704;SDS011;2366;51.332;6.610;2023-08-08T07:18:42;8.77;;;3.27;;
4704;SDS011;2366;51.332;6.610;2023-08-08T07:21:08;6.60;;;3.47;;
4704;SDS011;2366;51.332;6.610;2023-08-08T07:23:33;3.67;;;2.67;;
4704;SDS011;2366;51.332;6.610;2023-08-08T07:25:59;12.03;;;2.70;;
4704;SDS011;2366;51.332;6.610;2023-08-08T07:28:24;2.80;;;2.60;;
4704;SDS011;2366;51.332;6.610;2023-08-08T07:30:49;7.17;;;3.50;;
4704;SDS011;2366;51.332;6.610;2023-08-08T07:33:15;9.10;;;3.13;;
4704;SDS011;2366;51.332;6.610;2023-08-08T07:35:40;6.87;;;4.10;;
4704;SDS011;2366;51.332;6.610;2023-08-08T07:38:06;9.50;;;3.23;;
4704;SDS011;2366;51.332;6.610;2023-08-08T07:40:31;5.77;;;3.23;;
4704;SDS011;2366;51.332;6.610;2023-08-08T07:42:56;3.83;;;2.43;;
4704;SDS011;2366;51.332;6.610;2023-08-08T07:45:22;7.93;;;3.10;;
4704;SDS011;2366;51.332;6.610;2023-08-08T07:47:47;8.37;;;2.93;;
4704;SDS011;2366;51.332;6.610;2023-08-08T07:50:13;6.83;;;2.37;;
4704;SDS011;2366;51.332;6.610;2023-08-08T07:52:38;4.63;;;2.10;;
4704;SDS011;2366;51.332;6.610;2023-08-08T07:55:05;7.17;;;2.67;;
4704;SDS011;2366;51.332;6.610;2023-08-08T07:57:31;3.70;;;2.50;;
4704;SDS011;2366;51.332;6.610;2023-08-08T07:59:59;5.77;;;3.33;;
4704;SDS011;2366;51.332;6.610;2023-08-08T08:02:30;7.13;;;2.97;;
4704;SDS011;2366;51.332;6.610;2023-08-08T08:04:56;6.63;;;2.40;;
4704;SDS011;2366;51.332;6.610;2023-08-08T08:07:21;7.73;;;2.40;;
4704;SDS011;2366;51.332;6.610;2023-08-08T08:09:47;5.87;;;2.50;;
4704;SDS011;2366;51.332;6.610;2023-08-08T08:12:12;10.03;;;2.73;;
4704;SDS011;2366;51.332;6.610;2023-08-08T08:14:38;7.70;;;2.23;;
4704;SDS011;2366;51.332;6.610;2023-08-08T08:17:03;9.20;;;1.83;;
4704;SDS011;2366;51.332;6.610;2023-08-08T08:19:29;4.17;;;2.20;;
4704;SDS011;2366;51.332;6.610;2023-08-08T08:21:54;4.67;;;2.70;;
4704;SDS011;2366;51.332;6.610;2023-08-08T08:24:19;8.73;;;3.50;;
4704;SDS011;2366;51.332;6.610;2023-08-08T08:26:45;8.53;;;3.40;;
4704;SDS011;2366;51.332;6.610;2023-08-08T08:29:10;5.37;;;2.47;;
4704;SDS011;2366;51.332;6.610;2023-08-08T08:31:36;7.30;;;2.90;;
4704;SDS011;2366;51.332;6.610;2023-08-08T08:34:02;4.13;;;1.77;;
4704;SDS011;2366;51.332;6.610;2023-08-08T08:36:28;3.60;;;1.83;;
4704;SDS011;2366;51.332;6.610;2023-08-08T08:38:53;3.30;;;1.80;;
4704;SDS011;2366;51.332;6.610;2023-08-08T08:41:19;3.77;;;2.00;;
4704;SDS011;2366;51.332;6.610;2023-08-08T08:43:50;3.27;;;1.87;;
4704;SDS011;2366;51.332;6.610;2023-08-08T08:46:15;7.80;;;3.03;;
4704;SDS011;2366;51.332;6.610;2023-08-08T08:48:45;2.37;;;2.10;;
4704;SDS011;2366;51.332;6.610;2023-08-08T08:51:12;5.33;;;2.03;;
4704;SDS011;2366;51.332;6.610;2023-08-08T08:53:37;4.50;;;2.17;;
4704;SDS011;2366;51.332;6.610;2023-08-08T08:56:04;8.63;;;2.17;;
4704;SDS011;2366;51.332;6.610;2023-08-08T08:58:30;6.50;;;2.50;;
4704;SDS011;2366;51.332;6.610;2023-08-08T09:00:56;5.43;;;2.40;;
4704;SDS011;2366;51.332;6.610;2023-08-08T09:03:23;4.50;;;1.97;;
4704;SDS011;2366;51.332;6.610;2023-08-08T09:05:49;4.97;;;1.73;;
4704;SDS011;2366;51.332;6.610;2023-08-08T09:08:16;3.83;;;1.90;;
4704;SDS011;2366;51.332;6.610;2023-08-08T09:10:42;5.80;;;2.63;;
4704;SDS011;2366;51.332;6.610;2023-08-08T09:13:07;10.83;;;3.30;;
4704;SDS011;2366;51.332;6.610;2023-08-08T09:15:33;6.23;;;2.17;;
4704;SDS011;2366;51.332;6.610;2023-08-08T09:17:59;4.30;;;1.90;;
4704;SDS011;2366;51.332;6.610;2023-08-08T09:20:25;9.70;;;2.07;;
4704;SDS011;2366;51.332;6.610;2023-08-08T09:22:53;4.70;;;1.80;;
4704;SDS011;2366;51.332;6.610;2023-08-08T09:25:19;4.33;;;2.00;;
4704;SDS011;2366;51.332;6.610;2023-08-08T09:27:44;6.30;;;2.40;;
4704;SDS011;2366;51.332;6.610;2023-08-08T09:30:10;3.00;;;2.30;;
4704;SDS011;2366;51.332;6.610;2023-08-08T09:32:37;5.60;;;2.57;;
4704;SDS011;2366;51.332;6.610;2023-08-08T09:35:02;11.17;;;1.90;;
4704;SDS011;2366;51.332;6.610;2023-08-08T09:37:28;4.03;;;1.63;;
4704;SDS011;2366;51.332;6.610;2023-08-08T09:39:57;7.47;;;2.60;;
4704;SDS011;2366;51.332;6.610;2023-08-08T09:42:28;4.40;;;1.83;;
4704;SDS011;2366;51.332;6.610;2023-08-08T09:44:56;4.90;;;1.80;;
4704;SDS011;2366;51.332;6.610;2023-08-08T09:47:22;5.13;;;2.47;;
4704;SDS011;2366;51.332;6.610;2023-08-08T09:49:48;8.27;;;2.53;;
4704;SDS011;2366;51.332;6.610;2023-08-08T09:52:14;4.23;;;2.30;;
4704;SDS011;2366;51.332;6.610;2023-08-08T09:54:40;3.07;;;2.17;;
4704;SDS011;2366;51.332;6.610;2023-08-08T09:57:06;7.30;;;2.10;;
4704;SDS011;2366;51.332;6.610;2023-08-08T09:59:32;4.13;;;2.07;;
4704;SDS011;2366;51.332;6.610;2023-08-08T10:01:59;6.27;;;2.50;;
4704;SDS011;2366;51.332;6.610;2023-08-08T10:04:26;4.30;;;2.07;;
4704;SDS011;2366;51.332;6.610;2023-08-08T10:06:51;9.33;;;2.00;;
4704;SDS011;2366;51.332;6.610;2023-08-08T10:09:17;11.03;;;2.70;;
4704;SDS011;2366;51.332;6.610;2023-08-08T10:11:42;9.50;;;2.63;;
4704;SDS011;2366;51.332;6.610;2023-08-08T10:14:09;5.83;;;1.50;;
4704;SDS011;2366;51.332;6.610;2023-08-08T10:16:36;3.03;;;1.67;;
4704;SDS011;2366;51.332;6.610;2023-08-08T10:19:03;8.20;;;2.00;;
4704;SDS011;2366;51.332;6.610;2023-08-08T10:21:37;3.77;;;2.10;;
4704;SDS011;2366;51.332;6.610;2023-08-08T10:24:06;4.53;;;1.47;;
4704;SDS011;2366;51.332;6.610;2023-08-08T10:26:33;3.70;;;1.77;;
4704;SDS011;2366;51.332;6.610;2023-08-08T10:28:59;3.63;;;1.60;;
4704;SDS011;2366;51.332;6.610;2023-08-08T10:31:27;3.27;;;1.77;;
4704;SDS011;2366;51.332;6.610;2023-08-08T10:34:03;7.40;;;2.47;;
4704;SDS011;2366;51.332;6.610;2023-08-08T10:36:48;1.63;;;1.50;;
4704;SDS011;2366;51.332;6.610;2023-08-08T10:39:16;2.17;;;1.30;;
4704;SDS011;2366;51.332;6.610;2023-08-08T10:41:46;6.90;;;1.80;;
4704;SDS011;2366;51.332;6.610;2023-08-08T10:44:21;12.57;;;1.67;;
4704;SDS011;2366;51.332;6.610;2023-08-08T10:46:50;6.13;;;2.23;;
4704;SDS011;2366;51.332;6.610;2023-08-08T10:49:18;4.27;;;1.73;;
4704;SDS011;2366;51.332;6.610;2023-08-08T10:51:44;4.10;;;1.93;;
4704;SDS011;2366;51.332;6.610;2023-08-08T10:54:13;3.80;;;1.83;;
4704;SDS011;2366;51.332;6.610;2023-08-08T10:56:39;4.40;;;1.90;;
4704;SDS011;2366;51.332;6.610;2023-08-08T10:59:15;9.53;;;2.50;;
4704;SDS011;2366;51.332;6.610;2023-08-08T11:01:44;4.53;;;1.87;;
4704;SDS011;2366;51.332;6.610;2023-08-08T11:04:11;3.30;;;1.80;;
4704;SDS011;2366;51.332;6.610;2023-08-08T11:06:37;5.73;;;2.23;;
4704;SDS011;2366;51.332;6.610;2023-08-08T11:09:05;10.00;;;2.47;;
4704;SDS011;2366;51.332;6.610;2023-08-08T11:11:35;7.87;;;4.27;;
4704;SDS011;2366;51.332;6.610;2023-08-08T11:14:12;9.60;;;2.20;;
4704;SDS011;2366;51.332;6.610;2023-08-08T11:16:41;3.33;;;2.00;;
4704;SDS011;2366;51.332;6.610;2023-08-08T11:19:09;1.70;;;1.53;;
4704;SDS011;2366;51.332;6.610;2023-08-08T11:21:35;8.20;;;2.10;;
4704;SDS011;2366;51.332;6.610;2023-08-08T11:24:03;4.47;;;1.90;;
4704;SDS011;2366;51.332;6.610;2023-08-08T11:26:29;8.90;;;2.23;;
4704;SDS011;2366;51.332;6.610;2023-08-08T11:28:57;2.73;;;1.90;;
4704;SDS011;2366;51.332;6.610;2023-08-08T11:31:23;6.30;;;1.97;;
4704;SDS011;2366;51.332;6.610;2023-08-08T11:33:50;2.77;;;2.40;;
4704;SDS011;2366;51.332;6.610;2023-08-08T11:36:15;4.27;;;1.67;;
4704;SDS011;2366;51.332;6.610;2023-08-08T11:38:42;4.00;;;1.83;;
4704;SDS011;2366;51.332;6.610;2023-08-08T11:41:09;1.83;;;1.60;;
4704;SDS011;2366;51.332;6.610;2023-08-08T11:43:35;6.20;;;1.83;;
4704;SDS011;2366;51.332;6.610;2023-08-08T11:46:02;6.20;;;1.87;;
4704;SDS011;2366;51.332;6.610;2023-08-08T11:48:28;3.70;;;2.43;;
4704;SDS011;2366;51.332;6.610;2023-08-08T11:50:53;3.83;;;1.93;;
4704;SDS011;2366;51.332;6.610;2023-08-08T11:53:19;5.37;;;2.30;;
4704;SDS011;2366;51.332;6.610;2023-08-08T11:55:45;1.67;;;1.20;;
4704;SDS011;2366;51.332;6.610;2023-08-08T11:58:14;5.53;;;1.50;;
4704;SDS011;2366;51.332;6.610;2023-08-08T12:00:39;4.53;;;1.70;;
4704;SDS011;2366;51.332;6.610;2023-08-08T12:03:07;2.70;;;2.17;;
4704;SDS011;2366;51.332;6.610;2023-08-08T12:05:37;1.63;;;1.37;;
4704;SDS011;2366;51.332;6.610;2023-08-08T12:08:04;5.93;;;1.60;;
4704;SDS011;2366;51.332;6.610;2023-08-08T12:10:30;5.67;;;2.07;;
4704;SDS011;2366;51.332;6.610;2023-08-08T12:12:56;2.80;;;1.47;;
4704;SDS011;2366;51.332;6.610;2023-08-08T12:15:27;3.80;;;2.00;;
4704;SDS011;2366;51.332;6.610;2023-08-08T12:18:03;6.80;;;1.97;;
4704;SDS011;2366;51.332;6.610;2023-08-08T12:20:28;4.30;;;2.00;;
4704;SDS011;2366;51.332;6.610;2023-08-08T12:22:55;5.63;;;1.80;;
4704;SDS011;2366;51.332;6.610;2023-08-08T12:25:21;4.63;;;1.70;;
4704;SDS011;2366;51.332;6.610;2023-08-08T12:27:47;1.70;;;1.60;;
4704;SDS011;2366;51.332;6.610;2023-08-08T12:30:12;1.90;;;1.63;;
4704;SDS011;2366;51.332;6.610;2023-08-08T12:32:38;2.57;;;1.53;;
4704;SDS011;2366;51.332;6.610;2023-08-08T12:35:03;2.43;;;1.50;;
4704;SDS011;2366;51.332;6.610;2023-08-08T12:37:29;1.50;;;1.40;;
4704;SDS011;2366;51.332;6.610;2023-08-08T12:39:54;1.40;;;1.30;;
4704;SDS011;2366;51.332;6.610;2023-08-08T12:42:20;2.50;;;1.63;;
4704;SDS011;2366;51.332;6.610;2023-08-08T12:44:46;3.53;;;1.43;;
4704;SDS011;2366;51.332;6.610;2023-08-08T12:47:12;11.90;;;2.27;;
4704;SDS011;2366;51.332;6.610;2023-08-08T12:49:37;2.17;;;1.73;;
4704;SDS011;2366;51.332;6.610;2023-08-08T12:52:03;4.50;;;2.07;;
4704;SDS011;2366;51.332;6.610;2023-08-08T12:54:28;2.23;;;2.03;;
4704;SDS011;2366;51.332;6.610;2023-08-08T12:56:54;3.53;;;2.30;;
4704;SDS011;2366;51.332;6.610;2023-08-08T12:59:19;3.83;;;2.03;;
4704;SDS011;2366;51.332;6.610;2023-08-08T13:01:45;3.53;;;1.43;;
4704;SDS011;2366;51.332;6.610;2023-08-08T13:04:10;1.80;;;1.70;;
4704;SDS011;2366;51.332;6.610;2023-08-08T13:06:36;5.87;;;1.83;;
4704;SDS011;2366;51.332;6.610;2023-08-08T13:09:01;2.50;;;1.60;;
4704;SDS011;2366;51.332;6.610;2023-08-08T13:11:27;1.70;;;1.53;;
4704;SDS011;2366;51.332;6.610;2023-08-08T13:13:52;6.77;;;1.90;;
4704;SDS011;2366;51.332;6.610;2023-08-08T13:16:18;5.20;;;1.30;;
4704;SDS011;2366;51.332;6.610;2023-08-08T13:18:43;5.53;;;2.03;;
4704;SDS011;2366;51.332;6.610;2023-08-08T13:21:09;9.00;;;2.20;;
4704;SDS011;2366;51.332;6.610;2023-08-08T13:23:35;3.90;;;2.23;;
4704;SDS011;2366;51.332;6.610;2023-08-08T13:26:01;1.63;;;1.53;;
4704;SDS011;2366;51.332;6.610;2023-08-08T13:28:28;3.00;;;1.37;;
4704;SDS011;2366;51.332;6.610;2023-08-08T13:30:54;2.33;;;1.37;;
4704;SDS011;2366;51.332;6.610;2023-08-08T13:33:19;1.77;;;1.23;;
4704;SDS011;2366;51.332;6.610;2023-08-08T13:35:45;2.40;;;1.67;;
4704;SDS011;2366;51.332;6.610;2023-08-08T13:38:11;2.37;;;1.67;;
4704;SDS011;2366;51.332;6.610;2023-08-08T13:40:39;2.10;;;1.67;;
4704;SDS011;2366;51.332;6.610;2023-08-08T13:43:08;12.47;;;1.83;;
4704;SDS011;2366;51.332;6.610;2023-08-08T13:45:33;3.63;;;1.60;;
4704;SDS011;2366;51.332;6.610;2023-08-08T13:47:59;3.07;;;1.70;;
4704;SDS011;2366;51.332;6.610;2023-08-08T13:50:24;6.87;;;1.80;;
4704;SDS011;2366;51.332;6.610;2023-08-08T13:52:50;1.73;;;1.20;;
4704;SDS011;2366;51.332;6.610;2023-08-08T13:55:17;1.83;;;1.30;;
4704;SDS011;2366;51.332;6.610;2023-08-08T13:57:43;2.00;;;1.40;;
4704;SDS011;2366;51.332;6.610;2023-08-08T14:00:09;4.63;;;1.57;;
4704;SDS011;2366;51.332;6.610;2023-08-08T14:02:37;4.23;;;1.27;;
4704;SDS011;2366;51.332;6.610;2023-08-08T14:05:02;3.00;;;1.43;;
4704;SDS011;2366;51.332;6.610;2023-08-08T14:07:31;3.63;;;1.20;;
4704;SDS011;2366;51.332;6.610;2023-08-08T14:09:57;2.20;;;1.20;;
4704;SDS011;2366;51.332;6.610;2023-08-08T14:12:22;2.63;;;1.10;;
4704;SDS011;2366;51.332;6.610;2023-08-08T14:14:47;2.23;;;1.10;;
4704;SDS011;2366;51.332;6.610;2023-08-08T14:17:13;3.40;;;1.83;;
4704;SDS011;2366;51.332;6.610;2023-08-08T14:19:38;3.80;;;0.90;;
4704;SDS011;2366;51.332;6.610;2023-08-08T14:22:03;2.43;;;1.47;;
4704;SDS011;2366;51.332;6.610;2023-08-08T14:24:29;1.23;;;1.13;;
4704;SDS011;2366;51.332;6.610;2023-08-08T14:26:54;2.87;;;1.37;;
4704;SDS011;2366;51.332;6.610;2023-08-08T14:29:20;1.93;;;1.40;;
4704;SDS011;2366;51.332;6.610;2023-08-08T14:31:45;1.10;;;1.00;;
4704;SDS011;2366;51.332;6.610;2023-08-08T14:34:16;2.13;;;1.20;;
4704;SDS011;2366;51.332;6.610;2023-08-08T14:36:42;1.63;;;1.00;;
4704;SDS011;2366;51.332;6.610;2023-08-08T14:39:07;2.20;;;1.53;;
4704;SDS011;2366;51.332;6.610;2023-08-08T14:41:33;3.43;;;1.67;;
4704;SDS011;2366;51.332;6.610;2023-08-08T14:43:58;1.03;;;0.97;;
4704;SDS011;2366;51.332;6.610;2023-08-08T14:46:24;1.40;;;1.20;;
4704;SDS011;2366;51.332;6.610;2023-08-08T14:48:49;2.60;;;1.10;;
4704;SDS011;2366;51.332;6.610;2023-08-08T14:51:14;1.63;;;1.10;;
4704;SDS011;2366;51.332;6.610;2023-08-08T14:53:41;2.27;;;1.10;;
4704;SDS011;2366;51.332;6.610;2023-08-08T14:56:07;4.33;;;1.00;;
4704;SDS011;2366;51.332;6.610;2023-08-08T14:58:33;2.17;;;1.50;;
4704;SDS011;2366;51.332;6.610;2023-08-08T15:00:59;5.03;;;0.93;;
4704;SDS011;2366;51.332;6.610;2023-08-08T15:03:25;1.43;;;1.00;;
4704;SDS011;2366;51.332;6.610;2023-08-08T15:05:51;3.63;;;1.57;;
4704;SDS011;2366;51.332;6.610;2023-08-08T15:08:16;2.10;;;0.90;;
4704;SDS011;2366;51.332;6.610;2023-08-08T15:10:43;2.13;;;1.13;;